createdAt,value
2017-07-05T00:00:32.055Z,2.13
2017-07-05T00:02:59.521Z,1.80
2017-07-05T00:05:27.082Z,1.70
2017-07-05T00:07:54.638Z,2.20
2017-07-05T00:10:22.213Z,2.30
2017-07-05T00:12:50.481Z,2.23
2017-07-05T00:15:18.025Z,2.07
2017-07-05T00:17:45.501Z,1.93
2017-07-05T00:20:13.036Z,2.20
2017-07-05T00:22:40.574Z,2.27
2017-07-05T00:25:08.025Z,2.30
2017-07-05T00:27:35.489Z,2.10
2017-07-05T00:30:02.951Z,2.30
2017-07-05T00:32:30.428Z,2.43
2017-07-05T00:34:57.896Z,2.20
2017-07-05T00:37:25.460Z,2.20
2017-07-05T00:39:53.748Z,2.10
2017-07-05T00:42:21.982Z,2.40
2017-07-05T00:44:49.453Z,2.13
2017-07-05T00:47:17.009Z,2.30
2017-07-05T00:49:44.566Z,2.23
2017-07-05T00:52:12.136Z,2.73
2017-07-05T00:54:39.696Z,1.83
2017-07-05T00:57:07.255Z,2.40
2017-07-05T00:59:34.726Z,2.73
2017-07-05T01:02:02.987Z,2.60
2017-07-05T01:04:30.537Z,2.43
2017-07-05T01:06:58.104Z,2.20
2017-07-05T01:09:25.659Z,2.33
2017-07-05T01:11:53.215Z,1.90
2017-07-05T01:14:20.779Z,2.60
2017-07-05T01:16:48.345Z,2.10
2017-07-05T01:19:16.574Z,2.20
2017-07-05T01:21:44.025Z,2.77
2017-07-05T01:24:11.487Z,2.77
2017-07-05T01:26:38.987Z,2.67
2017-07-05T01:29:06.529Z,2.00
2017-07-05T01:31:33.991Z,2.47
2017-07-05T01:34:01.457Z,2.40
2017-07-05T01:36:29.723Z,2.17
2017-07-05T01:38:57.273Z,2.20
2017-07-05T01:41:24.839Z,2.47
2017-07-05T01:43:52.394Z,2.60
2017-07-05T01:46:19.959Z,2.50
2017-07-05T01:48:47.418Z,2.60
2017-07-05T01:51:14.969Z,2.37
2017-07-05T01:53:42.484Z,2.63
2017-07-05T01:56:09.991Z,2.60
2017-07-05T01:58:38.231Z,1.90
2017-07-05T02:01:05.709Z,3.23
2017-07-05T02:03:33.272Z,2.80
2017-07-05T02:06:00.834Z,2.40
2017-07-05T02:08:28.298Z,2.20
2017-07-05T02:10:55.767Z,2.10
2017-07-05T02:13:24.026Z,2.83
2017-07-05T02:15:51.591Z,2.87
2017-07-05T02:18:19.151Z,2.50
2017-07-05T02:20:47.378Z,1.90
2017-07-05T02:23:14.883Z,2.47
2017-07-05T02:25:42.337Z,2.23
2017-07-05T02:28:10.610Z,2.10
2017-07-05T02:30:38.166Z,2.30
2017-07-05T02:33:05.639Z,1.80
2017-07-05T02:35:33.897Z,2.40
2017-07-05T02:38:01.359Z,3.30
2017-07-05T02:40:28.832Z,2.00
2017-07-05T02:42:57.066Z,2.10
2017-07-05T02:45:24.534Z,2.13
2017-07-05T02:47:52.004Z,2.10
2017-07-05T02:50:19.552Z,2.47
2017-07-05T02:52:47.018Z,2.20
2017-07-05T02:55:14.472Z,2.00
2017-07-05T02:57:42.032Z,2.67
2017-07-05T03:00:09.592Z,2.27
2017-07-05T03:02:37.050Z,2.70
2017-07-05T03:05:05.278Z,2.50
2017-07-05T03:07:32.774Z,2.10
2017-07-05T03:10:00.330Z,3.10
2017-07-05T03:12:27.897Z,2.20
2017-07-05T03:14:55.450Z,2.03
2017-07-05T03:17:22.913Z,2.40
2017-07-05T03:19:50.386Z,2.30
2017-07-05T03:22:18.632Z,2.33
2017-07-05T03:24:46.114Z,2.60
2017-07-05T03:27:14.361Z,2.57
2017-07-05T03:29:41.831Z,3.10
2017-07-05T03:32:09.307Z,2.73
2017-07-05T03:34:37.558Z,2.90
2017-07-05T03:37:05.026Z,2.67
2017-07-05T03:39:33.286Z,2.30
2017-07-05T03:42:00.849Z,3.07
2017-07-05T03:44:28.416Z,3.43
2017-07-05T03:46:56.740Z,1.80
2017-07-05T03:49:24.197Z,1.97
2017-07-05T03:51:51.699Z,2.17
2017-07-05T03:54:19.246Z,3.20
2017-07-05T03:56:46.719Z,2.87
2017-07-05T03:59:14.276Z,2.40
2017-07-05T04:01:41.827Z,2.40
2017-07-05T04:04:09.282Z,2.53
2017-07-05T04:06:36.837Z,2.30
2017-07-05T04:09:04.405Z,2.37
2017-07-05T04:11:31.968Z,3.17
2017-07-05T04:13:59.437Z,3.23
2017-07-05T04:16:27.662Z,2.60
2017-07-05T04:18:55.150Z,2.90
2017-07-05T04:21:22.719Z,2.00
2017-07-05T04:23:50.177Z,2.43
2017-07-05T04:26:18.433Z,2.70
2017-07-05T04:28:45.893Z,2.83
2017-07-05T04:31:13.456Z,2.57
2017-07-05T04:33:41.022Z,2.50
2017-07-05T04:36:08.478Z,3.03
2017-07-05T04:38:35.941Z,2.60
2017-07-05T04:41:04.202Z,2.33
2017-07-05T04:43:31.763Z,2.60
2017-07-05T04:45:59.323Z,2.70
2017-07-05T04:48:26.887Z,2.30
2017-07-05T04:50:54.359Z,3.13
2017-07-05T04:53:22.613Z,2.70
2017-07-05T04:55:50.091Z,3.03
2017-07-05T04:58:18.356Z,2.07
2017-07-05T05:00:45.813Z,2.87
2017-07-05T05:03:14.039Z,2.47
2017-07-05T05:05:41.502Z,2.87
2017-07-05T05:08:08.957Z,2.00
2017-07-05T05:10:37.361Z,3.13
2017-07-05T05:13:04.943Z,2.90
2017-07-05T05:15:33.168Z,2.60
2017-07-05T05:18:00.667Z,2.47
2017-07-05T05:20:28.215Z,2.00
2017-07-05T05:22:55.673Z,2.50
2017-07-05T05:25:23.248Z,2.33
2017-07-05T05:27:50.797Z,2.00
2017-07-05T05:30:18.267Z,2.37
2017-07-05T05:32:46.514Z,2.60
2017-07-05T05:35:13.983Z,2.30
2017-07-05T05:37:41.535Z,2.00
2017-07-05T05:40:08.984Z,2.50
2017-07-05T05:42:36.545Z,2.33
2017-07-05T05:45:04.041Z,2.80
2017-07-05T05:47:31.478Z,2.83
2017-07-05T05:49:59.707Z,2.80
2017-07-05T05:52:27.174Z,3.10
2017-07-05T05:54:54.645Z,2.70
2017-07-05T05:57:22.105Z,2.30
2017-07-05T05:59:49.664Z,3.23
2017-07-05T06:02:17.131Z,3.37
2017-07-05T06:04:44.610Z,2.90
2017-07-05T06:09:46.751Z,2.70
2017-07-05T06:12:14.213Z,3.27
2017-07-05T06:14:41.782Z,2.80
2017-07-05T06:17:09.345Z,3.10
2017-07-05T06:19:37.619Z,2.73
2017-07-05T06:22:05.092Z,2.67
2017-07-05T06:24:33.328Z,2.33
2017-07-05T06:27:00.803Z,2.40
2017-07-05T06:29:28.279Z,10.57
2017-07-05T06:31:56.533Z,5.10
2017-07-05T06:34:23.999Z,2.93
2017-07-05T06:36:52.239Z,7.67
2017-07-05T06:39:19.708Z,3.90
2017-07-05T06:41:47.278Z,5.23
2017-07-05T06:44:14.832Z,3.30
2017-07-05T06:46:42.402Z,3.10
2017-07-05T06:49:10.771Z,2.80
2017-07-05T06:51:38.247Z,3.23
2017-07-05T06:54:06.500Z,3.40
2017-07-05T06:56:33.970Z,4.93
2017-07-05T06:59:01.438Z,5.33
2017-07-05T07:01:29.678Z,3.77
2017-07-05T07:03:57.146Z,4.30
2017-07-05T07:06:24.717Z,4.20
2017-07-05T07:08:52.183Z,5.10
2017-07-05T07:11:20.420Z,3.10
2017-07-05T07:13:47.888Z,3.37
2017-07-05T07:16:15.462Z,3.20
2017-07-05T07:18:43.014Z,3.03
2017-07-05T07:21:10.569Z,3.00
2017-07-05T07:23:38.141Z,3.53
2017-07-05T07:26:05.603Z,2.63
2017-07-05T07:28:33.873Z,3.40
2017-07-05T07:31:01.432Z,3.60
2017-07-05T07:33:28.973Z,3.17
2017-07-05T07:35:56.537Z,3.77
2017-07-05T07:38:23.992Z,3.20
2017-07-05T07:40:51.544Z,3.90
2017-07-05T07:43:19.042Z,3.80
2017-07-05T07:45:47.295Z,3.97
2017-07-05T07:48:14.778Z,4.27
2017-07-05T07:50:42.311Z,3.53
2017-07-05T07:53:09.765Z,3.20
2017-07-05T07:55:37.994Z,4.10
2017-07-05T07:58:05.494Z,4.20
2017-07-05T08:00:32.945Z,4.47
2017-07-05T08:03:00.405Z,5.67
2017-07-05T08:05:27.967Z,4.67
2017-07-05T08:07:55.532Z,4.10
2017-07-05T08:10:23.073Z,4.53
2017-07-05T08:12:50.533Z,4.40
2017-07-05T08:15:18.010Z,4.43
2017-07-05T08:17:46.266Z,4.50
2017-07-05T08:20:13.831Z,4.80
2017-07-05T08:22:41.306Z,4.20
2017-07-05T08:25:09.533Z,4.27
2017-07-05T08:27:37.027Z,4.77
2017-07-05T08:30:05.291Z,4.20
2017-07-05T08:32:32.763Z,4.00
2017-07-05T08:35:00.976Z,4.07
2017-07-05T08:37:28.470Z,3.53
2017-07-05T08:39:55.936Z,3.77
2017-07-05T08:42:23.389Z,4.57
2017-07-05T08:44:50.954Z,3.60
2017-07-05T08:47:18.422Z,4.07
2017-07-05T08:49:46.682Z,3.80
2017-07-05T08:52:14.246Z,3.87
2017-07-05T08:54:41.711Z,4.63
2017-07-05T08:57:09.937Z,4.03
2017-07-05T08:59:37.441Z,3.93
2017-07-05T09:02:04.994Z,4.30
2017-07-05T09:04:32.536Z,3.50
2017-07-05T09:07:00.106Z,4.90
2017-07-05T09:09:27.668Z,4.13
2017-07-05T09:11:55.126Z,5.10
2017-07-05T09:14:22.586Z,3.90
2017-07-05T09:16:50.850Z,3.80
2017-07-05T09:19:18.414Z,4.10
2017-07-05T09:21:45.875Z,3.87
2017-07-05T09:24:13.343Z,3.40
2017-07-05T09:26:41.755Z,3.10
2017-07-05T09:29:09.829Z,3.57
2017-07-05T09:31:38.125Z,2.90
2017-07-05T09:34:05.588Z,3.70
2017-07-05T09:36:33.170Z,4.00
2017-07-05T09:39:00.718Z,3.80
2017-07-05T09:41:28.178Z,3.30
2017-07-05T09:43:55.729Z,3.67
2017-07-05T09:46:23.195Z,2.47
2017-07-05T09:48:50.758Z,2.70
2017-07-05T09:51:18.309Z,3.00
2017-07-05T09:53:45.779Z,2.60
2017-07-05T09:56:13.233Z,2.40
2017-07-05T09:58:40.781Z,2.27
2017-07-05T10:01:08.353Z,1.97
2017-07-05T10:03:35.810Z,2.47
2017-07-05T10:06:03.269Z,2.27
2017-07-05T10:08:31.526Z,2.57
2017-07-05T10:10:58.989Z,2.07
2017-07-05T10:13:26.455Z,1.80
2017-07-05T10:15:54.003Z,4.10
2017-07-05T10:18:22.295Z,2.90
2017-07-05T10:20:50.558Z,2.93
2017-07-05T10:23:18.122Z,2.60
2017-07-05T10:25:45.585Z,2.07
2017-07-05T10:28:13.846Z,2.20
2017-07-05T10:30:41.401Z,2.20
2017-07-05T10:33:08.868Z,2.37
2017-07-05T10:35:36.321Z,2.07
2017-07-05T10:38:03.791Z,2.70
2017-07-05T10:40:32.057Z,2.20
2017-07-05T10:43:00.325Z,2.60
2017-07-05T10:45:27.885Z,2.93
2017-07-05T10:47:55.338Z,3.60
2017-07-05T10:50:22.910Z,2.03
2017-07-05T10:52:51.143Z,2.30
2017-07-05T10:55:18.612Z,2.20
2017-07-05T10:57:46.083Z,2.57
2017-07-05T11:00:13.538Z,2.47
2017-07-05T11:02:40.993Z,2.00
2017-07-05T11:05:08.563Z,2.03
2017-07-05T11:07:36.105Z,2.00
2017-07-05T11:10:03.668Z,2.57
2017-07-05T11:12:31.230Z,2.30
2017-07-05T11:14:58.795Z,2.83
2017-07-05T11:17:26.350Z,2.93
2017-07-05T11:19:53.819Z,2.40
2017-07-05T11:22:21.367Z,2.27
2017-07-05T11:24:48.918Z,1.87
2017-07-05T11:27:16.370Z,2.30
2017-07-05T11:29:43.829Z,2.23
2017-07-05T11:32:11.390Z,2.60
2017-07-05T11:34:38.953Z,2.47
2017-07-05T11:37:06.422Z,2.10
2017-07-05T11:39:33.979Z,2.30
2017-07-05T11:42:01.524Z,2.13
2017-07-05T11:44:29.019Z,2.13
2017-07-05T11:46:56.473Z,1.90
2017-07-05T11:49:23.930Z,2.17
2017-07-05T11:51:51.399Z,2.40
2017-07-05T11:54:18.928Z,1.77
2017-07-05T11:56:47.197Z,2.00
2017-07-05T11:59:14.653Z,2.03
2017-07-05T12:01:42.104Z,2.50
2017-07-05T12:04:09.595Z,2.93
2017-07-05T12:06:37.113Z,1.77
2017-07-05T12:09:04.669Z,2.10
2017-07-05T12:11:32.130Z,2.13
2017-07-05T12:13:59.686Z,2.10
2017-07-05T12:16:27.245Z,1.80
2017-07-05T12:18:54.707Z,1.70
2017-07-05T12:21:22.262Z,2.33
2017-07-05T12:23:49.809Z,1.20
2017-07-05T12:26:17.284Z,2.13
2017-07-05T12:28:44.762Z,1.40
2017-07-05T12:31:13.010Z,1.60
2017-07-05T12:33:40.465Z,1.40
2017-07-05T12:36:08.027Z,1.63
2017-07-05T12:38:35.484Z,1.83
2017-07-05T12:41:03.033Z,1.90
2017-07-05T12:43:30.602Z,1.83
2017-07-05T12:45:58.070Z,1.83
2017-07-05T12:48:26.311Z,2.20
2017-07-05T12:50:53.769Z,1.83
2017-07-05T12:53:21.229Z,1.93
2017-07-05T12:55:48.708Z,1.90
2017-07-05T12:58:16.268Z,2.03
2017-07-05T13:00:43.833Z,1.83
2017-07-05T13:03:12.060Z,1.77
2017-07-05T13:05:39.527Z,1.13
2017-07-05T13:08:06.988Z,1.30
2017-07-05T13:10:34.449Z,1.60
2017-07-05T13:13:01.919Z,1.50
2017-07-05T13:15:29.485Z,1.77
2017-07-05T13:17:56.943Z,1.63
2017-07-05T13:20:24.411Z,2.13
2017-07-05T13:22:51.875Z,2.00
2017-07-05T13:25:19.330Z,2.03
2017-07-05T13:27:47.548Z,1.67
2017-07-05T13:30:15.030Z,1.93
2017-07-05T13:32:42.495Z,1.83
2017-07-05T13:35:09.963Z,1.80
2017-07-05T13:37:38.231Z,1.87
2017-07-05T13:40:05.689Z,1.87
2017-07-05T13:42:33.932Z,2.10
2017-07-05T13:45:01.525Z,1.60
2017-07-05T13:47:28.990Z,1.50
2017-07-05T13:49:57.256Z,1.60
2017-07-05T13:52:24.711Z,1.77
2017-07-05T13:54:52.980Z,2.20
2017-07-05T13:57:20.534Z,2.00
2017-07-05T13:59:48.103Z,1.70
2017-07-05T14:02:15.649Z,2.70
2017-07-05T14:04:43.117Z,2.67
2017-07-05T14:07:10.674Z,1.70
2017-07-05T14:09:38.231Z,1.37
2017-07-05T14:12:05.783Z,1.80
2017-07-05T14:14:33.352Z,1.30
2017-07-05T14:17:00.901Z,1.60
2017-07-05T14:19:28.455Z,1.60
2017-07-05T14:21:56.017Z,1.30
2017-07-05T14:24:23.569Z,1.37
2017-07-05T14:26:51.026Z,1.60
2017-07-05T14:29:18.481Z,1.37
2017-07-05T14:31:45.933Z,1.60
2017-07-05T14:34:13.411Z,1.50
2017-07-05T14:36:40.949Z,1.37
2017-07-05T14:39:08.409Z,1.20
2017-07-05T14:41:35.884Z,1.60
2017-07-05T14:44:03.337Z,1.07
2017-07-05T14:46:30.798Z,1.50
2017-07-05T14:48:58.350Z,1.40
2017-07-05T14:51:25.805Z,1.93
2017-07-05T14:53:53.261Z,1.30
2017-07-05T14:56:20.743Z,1.20
2017-07-05T14:58:48.989Z,1.63
2017-07-05T15:01:16.553Z,1.43
2017-07-05T15:03:44.019Z,1.13
2017-07-05T15:06:12.260Z,1.23
2017-07-05T15:08:39.728Z,1.50
2017-07-05T15:11:07.289Z,1.13
2017-07-05T15:13:34.867Z,1.20
2017-07-05T15:16:02.413Z,1.13
2017-07-05T15:18:29.974Z,1.00
2017-07-05T15:20:57.550Z,1.33
2017-07-05T15:23:25.864Z,1.20
2017-07-05T15:25:53.321Z,1.10
2017-07-05T15:28:20.885Z,1.10
2017-07-05T15:30:48.337Z,0.80
2017-07-05T15:33:15.833Z,1.10
2017-07-05T15:35:43.293Z,1.00
2017-07-05T15:38:10.764Z,1.00
2017-07-05T15:40:38.995Z,1.10
2017-07-05T15:43:06.481Z,0.93
2017-07-05T15:45:33.951Z,1.10
2017-07-05T15:48:01.403Z,0.77
2017-07-05T15:50:28.869Z,1.00
2017-07-05T15:52:57.184Z,0.90
2017-07-05T15:55:24.647Z,1.10
2017-07-05T15:57:52.146Z,1.40
2017-07-05T16:00:19.601Z,1.30
2017-07-05T16:02:47.154Z,1.10
2017-07-05T16:05:14.608Z,1.27
2017-07-05T16:07:42.169Z,1.53
2017-07-05T16:10:09.726Z,1.00
2017-07-05T16:12:37.191Z,1.03
2017-07-05T16:15:04.646Z,0.90
2017-07-05T16:17:32.114Z,1.23
2017-07-05T16:20:00.367Z,1.03
2017-07-05T16:22:27.825Z,1.03
2017-07-05T16:24:55.291Z,1.00
2017-07-05T16:27:22.845Z,0.83
2017-07-05T16:29:50.416Z,0.90
2017-07-05T16:32:18.645Z,0.93
2017-07-05T16:34:46.150Z,0.93
2017-07-05T16:37:13.601Z,1.00
2017-07-05T16:39:41.159Z,0.90
2017-07-05T16:42:08.721Z,1.53
2017-07-05T16:44:36.235Z,1.10
2017-07-05T16:47:03.710Z,1.10
2017-07-05T16:49:31.181Z,1.10
2017-07-05T16:51:58.662Z,0.90
2017-07-05T16:54:26.875Z,1.33
2017-07-05T16:56:54.369Z,1.20
2017-07-05T16:59:21.836Z,1.00
2017-07-05T17:01:49.385Z,1.10
2017-07-05T17:04:16.855Z,0.83
2017-07-05T17:06:45.117Z,1.03
2017-07-05T17:09:12.672Z,1.10
2017-07-05T17:11:40.225Z,1.00
2017-07-05T17:14:07.749Z,1.00
2017-07-05T17:16:35.254Z,1.40
2017-07-05T17:19:08.571Z,1.50
2017-07-05T17:21:36.809Z,1.20
2017-07-05T17:24:04.385Z,1.33
2017-07-05T17:26:31.929Z,1.00
2017-07-05T17:28:59.400Z,1.17
2017-07-05T17:31:27.621Z,1.30
2017-07-05T17:33:55.128Z,1.37
2017-07-05T17:36:22.590Z,1.23
2017-07-05T17:38:50.140Z,1.00
2017-07-05T17:41:17.615Z,1.30
2017-07-05T17:43:45.893Z,1.30
2017-07-05T17:46:13.421Z,1.37
2017-07-05T17:48:40.894Z,0.97
2017-07-05T17:51:08.451Z,0.90
2017-07-05T17:53:36.002Z,0.97
2017-07-05T17:56:03.466Z,0.90
2017-07-05T17:58:30.933Z,1.20
2017-07-05T18:00:59.175Z,1.00
2017-07-05T18:03:26.635Z,2.97
2017-07-05T18:05:54.219Z,2.83
2017-07-05T18:08:22.445Z,2.73
2017-07-05T18:10:49.915Z,1.30
2017-07-05T18:13:17.370Z,1.90
2017-07-05T18:15:44.915Z,2.50
2017-07-05T18:18:12.678Z,1.40
2017-07-05T18:20:40.183Z,1.10
2017-07-05T18:23:07.771Z,0.90
2017-07-05T18:25:35.230Z,1.07
2017-07-05T18:28:02.745Z,1.03
2017-07-05T18:30:30.318Z,1.10
2017-07-05T18:32:58.547Z,1.07
2017-07-05T18:35:26.028Z,1.40
2017-07-05T18:37:53.493Z,1.47
2017-07-05T18:40:21.050Z,1.30
2017-07-05T18:42:48.519Z,1.33
2017-07-05T18:45:15.985Z,1.50
2017-07-05T18:47:44.246Z,1.33
2017-07-05T18:50:11.703Z,3.43
2017-07-05T18:52:39.166Z,4.70
2017-07-05T18:55:06.631Z,3.73
2017-07-05T18:57:34.883Z,1.90
2017-07-05T19:00:02.441Z,2.30
2017-07-05T19:02:30.375Z,2.10
2017-07-05T19:04:57.879Z,2.10
2017-07-05T19:07:25.425Z,2.73
2017-07-05T19:09:53.203Z,2.10
2017-07-05T19:12:20.759Z,1.73
2017-07-05T19:14:48.313Z,1.43
2017-07-05T19:17:15.926Z,1.73
2017-07-05T19:19:43.436Z,1.17
2017-07-05T19:22:10.994Z,1.47
2017-07-05T19:24:38.448Z,1.10
2017-07-05T19:27:05.900Z,1.40
2017-07-05T19:29:33.451Z,1.20
2017-07-05T19:32:00.913Z,1.23
2017-07-05T19:34:28.387Z,1.30
2017-07-05T19:36:56.651Z,1.40
2017-07-05T19:39:24.211Z,1.43
2017-07-05T19:41:51.752Z,1.60
2017-07-05T19:44:19.327Z,1.43
2017-07-05T19:46:46.874Z,1.33
2017-07-05T19:49:14.343Z,1.70
2017-07-05T19:51:41.903Z,2.00
2017-07-05T19:54:09.458Z,2.13
2017-07-05T19:56:37.560Z,2.43
2017-07-05T19:59:05.858Z,1.90
2017-07-05T20:01:33.826Z,1.97
2017-07-05T20:04:01.796Z,1.80
2017-07-05T20:06:29.346Z,1.40
2017-07-05T20:08:56.806Z,2.30
2017-07-05T20:11:24.314Z,2.27
2017-07-05T20:13:51.778Z,2.63
2017-07-05T20:16:19.349Z,2.67
2017-07-05T20:18:47.863Z,2.23
2017-07-05T20:21:15.360Z,2.33
2017-07-05T20:23:42.921Z,2.87
2017-07-05T20:26:10.395Z,3.30
2017-07-05T20:28:38.657Z,2.30
2017-07-05T20:31:06.219Z,3.13
2017-07-05T20:33:33.668Z,2.87
2017-07-05T20:36:01.130Z,2.17
2017-07-05T20:38:30.116Z,2.20
2017-07-05T20:40:57.778Z,2.27
2017-07-05T20:43:25.351Z,2.50
2017-07-05T20:45:52.915Z,2.60
2017-07-05T20:48:21.142Z,2.53
2017-07-05T20:50:48.601Z,2.60
2017-07-05T20:53:16.111Z,2.70
2017-07-05T20:55:44.366Z,2.73
2017-07-05T20:58:11.918Z,2.60
2017-07-05T21:00:39.383Z,3.33
2017-07-05T21:03:06.943Z,2.50
2017-07-05T21:05:34.411Z,2.60
2017-07-05T21:08:01.866Z,2.63
2017-07-05T21:10:29.321Z,2.50
2017-07-05T21:12:56.788Z,2.67
2017-07-05T21:15:25.005Z,2.47
2017-07-05T21:17:52.493Z,2.80
2017-07-05T21:20:19.947Z,2.80
2017-07-05T21:22:47.516Z,3.00
2017-07-05T21:25:15.070Z,2.90
2017-07-05T21:27:42.530Z,2.90
2017-07-05T21:30:10.087Z,3.90
2017-07-05T21:32:38.369Z,3.70
2017-07-05T21:35:06.598Z,3.60
2017-07-05T21:37:34.250Z,3.40
2017-07-05T21:40:01.745Z,3.70
2017-07-05T21:42:29.311Z,3.63
2017-07-05T21:44:56.792Z,3.60
2017-07-05T21:47:25.042Z,3.90
2017-07-05T21:49:52.498Z,3.50
2017-07-05T21:52:19.958Z,3.13
2017-07-05T21:54:47.517Z,4.10
2017-07-05T21:57:14.982Z,3.23
2017-07-05T21:59:42.589Z,3.30
2017-07-05T22:02:10.047Z,3.00
2017-07-05T22:04:37.505Z,4.20
2017-07-05T22:07:04.962Z,3.80
2017-07-05T22:09:32.454Z,3.40
2017-07-05T22:12:00.023Z,3.60
2017-07-05T22:14:27.587Z,3.30
2017-07-05T22:16:55.826Z,3.60
2017-07-05T22:19:23.282Z,3.03
2017-07-05T22:21:50.741Z,3.23
2017-07-05T22:24:18.227Z,3.40
2017-07-05T22:26:45.787Z,3.83
2017-07-05T22:29:13.242Z,3.53
2017-07-05T22:31:40.714Z,3.20
2017-07-05T22:34:08.961Z,3.07
2017-07-05T22:36:36.427Z,3.20
2017-07-05T22:39:03.891Z,4.03
2017-07-05T22:41:32.153Z,3.83
2017-07-05T22:43:59.701Z,3.33
2017-07-05T22:46:27.275Z,3.23
2017-07-05T22:48:54.739Z,3.70
2017-07-05T22:51:22.996Z,4.00
2017-07-05T22:53:50.558Z,4.57
2017-07-05T22:56:18.130Z,4.47
2017-07-05T22:58:45.595Z,4.60
2017-07-05T23:01:13.860Z,4.27
2017-07-05T23:03:41.363Z,4.10
2017-07-05T23:06:08.875Z,4.10
2017-07-05T23:08:36.333Z,3.87
2017-07-05T23:11:04.558Z,3.60
2017-07-05T23:13:32.017Z,4.53
2017-07-05T23:15:59.470Z,3.60
2017-07-05T23:18:26.969Z,3.90
2017-07-05T23:20:54.522Z,3.40
2017-07-05T23:23:22.102Z,3.67
2017-07-05T23:25:50.340Z,3.77
2017-07-05T23:28:17.812Z,3.53
2017-07-05T23:30:45.287Z,4.30
2017-07-05T23:33:13.543Z,3.70
2017-07-05T23:35:41.100Z,4.13
2017-07-05T23:38:08.566Z,3.60
2017-07-05T23:40:36.113Z,4.20
2017-07-05T23:43:03.571Z,3.63
2017-07-05T23:45:31.142Z,3.30
2017-07-05T23:47:58.597Z,3.47
2017-07-05T23:50:26.057Z,3.70
2017-07-05T23:52:53.611Z,3.93
2017-07-05T23:55:21.172Z,3.13
2017-07-05T23:57:48.721Z,4.03
